Time;durP1;ratioP1;P1;durP2;ratioP2;P2;SDS_P1;SDS_P2;PMS_P1;PMS_P2;Temp;Humidity;BMP_temperature;BMP_pressure;BME280_temperature;BME280_humidity;BME280_pressure;Samples;Min_cycle;Max_cycle;Signal;HPM_P1;HPM_P2
2021/08/07 00:01:21;;;;;;;3.13;1.57;;;16.50;85.40;;;;;;5061444;28;20489;-83
2021/08/07 00:03:48;;;;;;;3.50;2.10;;;16.50;85.80;;;;;;5061596;28;20895;-81
2021/08/07 00:06:15;;;;;;;2.50;1.60;;;16.50;85.90;;;;;;5059982;28;20832;-81
2021/08/07 00:08:42;;;;;;;2.70;1.60;;;16.40;86.70;;;;;;5059055;28;20459;-81
2021/08/07 00:11:09;;;;;;;4.30;1.93;;;16.50;86.50;;;;;;5059170;28;20437;-81
2021/08/07 00:13:36;;;;;;;2.80;1.83;;;16.50;87.00;;;;;;5058808;28;20481;-81
2021/08/07 00:16:05;;;;;;;2.30;1.70;;;16.50;87.60;;;;;;5058185;28;20543;-79
2021/08/07 00:18:32;;;;;;;1.33;1.23;;;16.60;86.80;;;;;;5058194;28;21007;-80
2021/08/07 00:20:59;;;;;;;2.50;1.50;;;16.50;85.80;;;;;;5058837;28;20502;-80
2021/08/07 00:23:25;;;;;;;2.17;1.40;;;16.50;85.30;;;;;;5059720;28;20453;-80
2021/08/07 00:25:52;;;;;;;3.67;1.57;;;16.50;84.60;;;;;;5063416;28;20414;-81
2021/08/07 00:28:19;;;;;;;1.80;1.70;;;16.50;84.90;;;;;;5060855;28;20917;-81
2021/08/07 00:30:46;;;;;;;2.23;1.40;;;16.50;84.60;;;;;;5069394;28;20464;-80
2021/08/07 00:33:15;;;;;;;1.70;1.40;;;16.50;84.60;;;;;;5062894;28;20459;-80
2021/08/07 00:35:42;;;;;;;1.83;1.50;;;16.50;84.30;;;;;;5060485;28;20491;-80
2021/08/07 00:38:08;;;;;;;1.63;1.47;;;16.40;84.30;;;;;;5060902;28;21036;-80
2021/08/07 00:40:35;;;;;;;2.60;1.70;;;16.40;84.50;;;;;;5059605;28;20485;-80
2021/08/07 00:43:02;;;;;;;2.13;1.63;;;16.40;84.80;;;;;;5062819;28;20494;-81
2021/08/07 00:45:29;;;;;;;4.03;1.80;;;16.40;85.50;;;;;;5066775;28;20800;-81
2021/08/07 00:47:57;;;;;;;3.43;1.70;;;16.40;85.20;;;;;;5064212;28;20864;-81
2021/08/07 00:50:25;;;;;;;1.90;1.20;;;16.40;83.40;;;;;;5058006;28;20457;-80
2021/08/07 00:52:52;;;;;;;2.20;1.57;;;16.50;82.20;;;;;;5057686;28;20493;-80
2021/08/07 00:55:19;;;;;;;1.48;1.38;;;16.60;82.30;;;;;;5056175;28;20544;-80
2021/08/07 00:57:46;;;;;;;2.20;1.20;;;16.60;81.20;;;;;;5057379;28;20220;-79
2021/08/07 01:00:13;;;;;;;3.60;1.30;;;16.60;81.20;;;;;;5057571;28;20459;-80
2021/08/07 01:02:47;;;;;;;1.50;1.40;;;16.60;81.30;;;;;;5058782;28;20690;-80
2021/08/07 01:05:22;;;;;;;5.10;1.40;;;16.60;81.20;;;;;;5057304;28;20468;-79
2021/08/07 01:07:58;;;;;;;2.30;1.50;;;16.60;80.40;;;;;;5061244;28;20424;-81
2021/08/07 01:10:32;;;;;;;1.57;1.47;;;16.60;81.40;;;;;;5075466;28;20482;-79
2021/08/07 01:13:07;;;;;;;1.77;1.67;;;16.50;82.80;;;;;;5071262;28;20838;-80
2021/08/07 01:15:39;;;;;;;1.63;1.53;;;16.50;82.20;;;;;;5057908;28;20450;-80
2021/08/07 01:18:09;;;;;;;2.23;1.70;;;16.50;82.20;;;;;;5057346;28;20466;-80
2021/08/07 01:20:39;;;;;;;3.93;1.90;;;16.50;82.20;;;;;;5057228;28;20500;-82
2021/08/07 01:23:12;;;;;;;3.43;1.87;;;16.50;82.20;;;;;;5075024;28;20451;-86
2021/08/07 01:25:49;;;;;;;2.00;1.53;;;16.50;82.20;;;;;;5074934;28;20468;-79
2021/08/07 01:28:19;;;;;;;3.00;1.90;;;16.50;82.80;;;;;;5055875;28;20456;-81
2021/08/07 01:30:49;;;;;;;1.73;1.30;;;16.60;82.00;;;;;;5056180;28;20817;-81
2021/08/07 01:33:17;;;;;;;1.40;1.30;;;16.60;81.70;;;;;;5056187;28;20803;-80
2021/08/07 01:35:44;;;;;;;2.40;1.40;;;16.60;81.50;;;;;;5054149;28;20486;-80
2021/08/07 01:38:12;;;;;;;3.00;1.43;;;16.70;81.20;;;;;;5053966;28;20494;-81
2021/08/07 01:40:39;;;;;;;2.80;1.73;;;16.70;79.70;;;;;;5057074;28;20631;-79
2021/08/07 01:43:06;;;;;;;3.60;1.50;;;16.70;78.10;;;;;;5053687;28;20584;-81
2021/08/07 01:45:34;;;;;;;3.60;1.33;;;16.70;77.60;;;;;;5054382;28;20550;-80
2021/08/07 01:48:05;;;;;;;3.30;1.47;;;16.80;77.70;;;;;;5053860;28;20490;-79
2021/08/07 01:50:34;;;;;;;1.40;1.23;;;16.80;76.70;;;;;;5054316;28;20467;-79
2021/08/07 01:53:03;;;;;;;2.27;1.60;;;16.70;76.80;;;;;;5053935;28;20471;-80
2021/08/07 01:55:35;;;;;;;1.73;1.63;;;16.70;77.00;;;;;;5054460;28;20495;-80
2021/08/07 01:58:07;;;;;;;5.03;1.90;;;16.80;76.50;;;;;;5053793;28;20464;-80
2021/08/07 02:00:37;;;;;;;3.43;1.60;;;16.80;77.20;;;;;;5054112;28;20793;-80
2021/08/07 02:03:05;;;;;;;2.13;1.67;;;16.70;79.50;;;;;;5053420;28;20484;-80
2021/08/07 02:05:32;;;;;;;2.07;1.30;;;16.60;81.20;;;;;;5053380;28;20538;-79
2021/08/07 02:08:01;;;;;;;4.93;1.60;;;16.50;82.20;;;;;;5054065;28;20486;-81
2021/08/07 02:10:28;;;;;;;1.60;1.50;;;16.50;82.20;;;;;;5054542;28;20877;-79
2021/08/07 02:12:56;;;;;;;1.50;1.40;;;16.50;82.70;;;;;;5055248;28;20472;-79
2021/08/07 02:15:23;;;;;;;1.80;1.60;;;16.40;84.30;;;;;;5054329;28;20463;-79
2021/08/07 02:17:52;;;;;;;2.33;1.60;;;16.40;83.90;;;;;;5055880;28;20524;-79
2021/08/07 02:20:19;;;;;;;4.67;1.50;;;16.30;84.50;;;;;;5058902;28;20469;-79
2021/08/07 02:22:49;;;;;;;3.90;1.40;;;16.30;85.60;;;;;;5059313;28;21002;-81
2021/08/07 02:25:16;;;;;;;4.13;1.67;;;16.20;85.70;;;;;;5065735;28;20464;-80
2021/08/07 02:27:44;;;;;;;1.73;1.50;;;16.30;86.20;;;;;;5064554;28;20508;-80
2021/08/07 02:30:11;;;;;;;1.50;1.40;;;16.30;85.80;;;;;;5058610;28;20494;-80
2021/08/07 02:32:39;;;;;;;3.57;1.57;;;16.30;86.10;;;;;;5058778;28;20565;-80
2021/08/07 02:35:10;;;;;;;2.43;1.73;;;16.40;85.80;;;;;;5058141;28;20493;-80
2021/08/07 02:37:38;;;;;;;5.00;1.47;;;16.40;85.10;;;;;;5059578;28;20941;-80
2021/08/07 02:40:08;;;;;;;1.97;1.80;;;16.50;84.50;;;;;;5069264;28;20465;-83
2021/08/07 02:42:35;;;;;;;2.30;1.80;;;16.50;84.10;;;;;;5061456;28;20504;-80
2021/08/07 02:45:04;;;;;;;3.30;1.50;;;16.60;82.80;;;;;;5063600;28;20460;-80
2021/08/07 02:47:31;;;;;;;3.67;1.20;;;16.70;82.40;;;;;;5065984;28;20462;-81
2021/08/07 02:49:59;;;;;;;2.80;1.43;;;16.80;82.50;;;;;;5063632;28;20440;-82
2021/08/07 02:52:27;;;;;;;2.20;1.50;;;16.80;81.90;;;;;;5058769;28;20535;-80
2021/08/07 02:54:54;;;;;;;2.17;1.50;;;16.90;80.70;;;;;;5055060;28;20551;-79
2021/08/07 02:57:22;;;;;;;2.87;1.60;;;17.00;79.90;;;;;;5055189;28;20429;-79
2021/08/07 02:59:49;;;;;;;2.67;1.53;;;17.00;78.30;;;;;;5054943;28;20455;-80
2021/08/07 03:02:16;;;;;;;3.50;1.40;;;17.00;76.70;;;;;;5057211;28;20540;-79
2021/08/07 03:04:43;;;;;;;4.63;1.43;;;17.00;76.30;;;;;;5061666;28;20518;-80
2021/08/07 03:07:10;;;;;;;1.30;1.20;;;17.00;76.30;;;;;;5058375;28;20496;-80
2021/08/07 03:09:38;;;;;;;2.47;1.53;;;17.00;76.10;;;;;;5062350;28;20464;-81
2021/08/07 03:12:05;;;;;;;2.13;1.40;;;17.00;75.80;;;;;;5057478;28;20504;-80
2021/08/07 03:14:32;;;;;;;2.17;1.43;;;17.10;75.90;;;;;;5053308;28;20900;-80
2021/08/07 03:16:59;;;;;;;1.90;1.30;;;17.10;76.00;;;;;;5052841;28;20543;-80
2021/08/07 03:19:26;;;;;;;2.20;1.53;;;17.00;76.10;;;;;;5053094;28;20459;-79
2021/08/07 03:21:52;;;;;;;5.13;2.30;;;16.90;76.20;;;;;;5052948;28;20536;-80
2021/08/07 03:24:19;;;;;;;2.25;1.27;;;16.90;77.30;;;;;;5053540;28;20906;-80
2021/08/07 03:26:48;;;;;;;2.33;1.40;;;16.70;79.70;;;;;;5054507;28;20200;-80
2021/08/07 03:29:15;;;;;;;3.00;1.33;;;16.60;81.50;;;;;;5053564;28;20453;-82
2021/08/07 03:31:41;;;;;;;3.20;1.30;;;16.60;82.30;;;;;;5056641;28;20230;-80
2021/08/07 03:34:08;;;;;;;3.50;1.90;;;16.60;82.30;;;;;;5057943;28;20874;-80
2021/08/07 03:36:35;;;;;;;3.00;1.63;;;16.60;82.30;;;;;;5056909;28;20245;-82
2021/08/07 03:39:04;;;;;;;1.80;1.30;;;16.60;82.30;;;;;;5056137;28;20493;-80
2021/08/07 03:41:31;;;;;;;1.57;1.27;;;16.50;82.20;;;;;;5056513;28;20478;-80
2021/08/07 03:43:59;;;;;;;2.73;1.40;;;16.50;82.20;;;;;;5056467;28;20568;-80
2021/08/07 03:46:26;;;;;;;1.77;1.40;;;16.50;82.70;;;;;;5056958;28;20493;-81
2021/08/07 03:48:53;;;;;;;3.63;1.53;;;16.60;83.10;;;;;;5067741;28;20479;-84
2021/08/07 03:51:20;;;;;;;3.43;1.40;;;16.60;82.30;;;;;;5060431;28;20539;-80
2021/08/07 03:53:47;;;;;;;4.50;1.60;;;16.60;82.30;;;;;;5056253;28;20487;-80
2021/08/07 03:56:14;;;;;;;2.30;1.30;;;16.60;83.00;;;;;;5056629;28;20483;-80
2021/08/07 03:58:41;;;;;;;2.50;1.87;;;16.60;83.40;;;;;;5057255;28;20532;-80
2021/08/07 04:01:09;;;;;;;3.30;1.53;;;16.60;82.30;;;;;;5056506;28;20476;-80
2021/08/07 04:03:36;;;;;;;2.37;1.43;;;16.70;82.40;;;;;;5060723;28;20499;-81
2021/08/07 04:06:02;;;;;;;1.63;1.53;;;16.50;83.80;;;;;;5074624;28;20410;-80
2021/08/07 04:08:29;;;;;;;2.07;1.23;;;16.50;84.40;;;;;;5079336;28;20478;-79
2021/08/07 04:10:56;;;;;;;2.63;1.67;;;16.60;84.50;;;;;;5073564;28;20452;-80
2021/08/07 04:13:23;;;;;;;2.93;1.43;;;16.60;83.70;;;;;;5060957;28;20537;-80
2021/08/07 04:15:50;;;;;;;1.60;1.50;;;16.60;83.70;;;;;;5066355;28;20479;-80
2021/08/07 04:18:18;;;;;;;1.80;1.70;;;16.50;83.90;;;;;;5065380;28;20430;-80
2021/08/07 04:20:45;;;;;;;5.80;1.23;;;16.50;84.80;;;;;;5065165;28;20994;-80
2021/08/07 04:23:12;;;;;;;6.30;1.67;;;16.50;84.50;;;;;;5065074;28;20509;-80
2021/08/07 04:25:39;;;;;;;4.57;1.80;;;16.70;84.10;;;;;;5065218;28;20474;-80
2021/08/07 04:28:07;;;;;;;1.60;1.40;;;16.70;82.40;;;;;;5065632;28;20474;-80
2021/08/07 04:30:34;;;;;;;5.03;1.80;;;16.70;82.50;;;;;;5064656;28;20970;-80
2021/08/07 04:33:01;;;;;;;2.07;1.63;;;16.80;82.50;;;;;;5057397;28;20502;-80
2021/08/07 04:35:29;;;;;;;3.87;1.60;;;16.80;81.70;;;;;;5056330;28;20467;-80
2021/08/07 04:37:59;;;;;;;2.63;1.50;;;16.80;81.20;;;;;;5056412;28;20543;-80
2021/08/07 04:40:27;;;;;;;2.50;1.40;;;16.90;81.10;;;;;;5056202;28;20426;-80
2021/08/07 04:42:54;;;;;;;2.40;1.40;;;16.90;81.50;;;;;;5091643;22;20587;-80
2021/08/07 04:45:22;;;;;;;2.70;1.70;;;16.90;81.20;;;;;;5083522;28;20450;-81
2021/08/07 04:47:55;;;;;;;2.57;1.57;;;17.00;80.10;;;;;;5082859;28;20461;-82
2021/08/07 04:50:23;;;;;;;3.47;1.77;;;16.90;81.20;;;;;;5090374;28;20493;-82
2021/08/07 04:52:53;;;;;;;2.07;1.67;;;17.00;81.40;;;;;;5091263;28;20459;-82
2021/08/07 04:55:20;;;;;;;3.77;1.60;;;17.10;80.60;;;;;;5092928;28;20417;-82
2021/08/07 04:57:48;;;;;;;2.13;1.23;;;17.00;81.50;;;;;;5093057;28;20454;-84
2021/08/07 05:00:15;;;;;;;1.90;1.80;;;17.00;81.40;;;;;;5094298;28;20451;-84
2021/08/07 05:02:45;;;;;;;2.87;1.87;;;17.00;81.40;;;;;;5096195;28;20461;-84
2021/08/07 05:05:13;;;;;;;2.30;1.70;;;17.00;81.60;;;;;;5095372;28;20459;-86
2021/08/07 05:07:40;;;;;;;2.33;1.63;;;17.10;80.40;;;;;;5099148;28;20483;-84
2021/08/07 05:10:10;;;;;;;1.90;1.60;;;17.20;80.30;;;;;;5097093;28;20459;-84
2021/08/07 05:12:38;;;;;;;4.57;1.63;;;17.30;78.90;;;;;;5098836;28;20478;-84
2021/08/07 05:15:06;;;;;;;2.37;1.80;;;17.40;77.60;;;;;;5092018;28;20443;-81
2021/08/07 05:17:33;;;;;;;3.30;1.80;;;17.60;76.90;;;;;;5083668;28;20483;-81
2021/08/07 05:20:00;;;;;;;2.87;1.77;;;18.00;74.90;;;;;;5078981;28;20459;-80
2021/08/07 05:22:27;;;;;;;4.00;1.30;;;18.40;73.50;;;;;;5077897;28;20564;-80
2021/08/07 05:24:55;;;;;;;4.30;1.50;;;18.80;70.10;;;;;;5083960;28;20434;-82
2021/08/07 05:27:23;;;;;;;3.10;1.70;;;18.90;67.20;;;;;;5091825;28;20433;-82
2021/08/07 05:29:50;;;;;;;2.10;1.43;;;18.90;66.80;;;;;;5090184;28;20429;-81
2021/08/07 05:32:17;;;;;;;2.93;1.60;;;19.00;66.90;;;;;;5094765;28;20472;-81
2021/08/07 05:34:44;;;;;;;3.40;1.47;;;19.20;65.10;;;;;;5096423;28;20479;-83
2021/08/07 05:37:11;;;;;;;2.77;1.57;;;19.30;63.30;;;;;;5091000;28;20430;-81
2021/08/07 05:39:37;;;;;;;2.27;1.30;;;19.20;63.10;;;;;;5097574;28;20448;-84
2021/08/07 05:42:04;;;;;;;1.30;1.20;;;19.10;62.50;;;;;;5084710;28;20490;-82
2021/08/07 05:44:33;;;;;;;4.33;1.53;;;19.10;61.60;;;;;;5077516;28;20468;-81
2021/08/07 05:47:00;;;;;;;3.10;1.30;;;19.10;62.40;;;;;;5077634;28;20857;-81
2021/08/07 05:49:27;;;;;;;3.00;1.00;;;19.30;62.00;;;;;;5078392;28;20448;-82
2021/08/07 05:51:54;;;;;;;2.07;1.47;;;19.40;59.70;;;;;;5082869;28;20887;-82
2021/08/07 05:54:21;;;;;;;3.40;1.80;;;19.60;60.50;;;;;;5088365;28;20448;-83
2021/08/07 05:56:48;;;;;;;6.73;1.70;;;19.50;62.40;;;;;;5088870;28;20522;-83
2021/08/07 05:59:15;;;;;;;1.40;1.30;;;19.20;65.00;;;;;;5090694;28;20435;-84
2021/08/07 06:01:43;;;;;;;10.13;2.00;;;19.00;67.60;;;;;;5084680;28;20463;-82
2021/08/07 06:04:10;;;;;;;3.97;1.73;;;18.60;68.80;;;;;;5092797;28;20480;-83
2021/08/07 06:06:37;;;;;;;1.57;1.47;;;18.80;68.50;;;;;;5091246;28;20484;-83
2021/08/07 06:09:04;;;;;;;4.00;2.10;;;18.90;66.80;;;;;;5081818;28;20438;-81
2021/08/07 06:11:31;;;;;;;5.87;1.80;;;18.40;70.30;;;;;;5078330;28;20468;-82
2021/08/07 06:13:58;;;;;;;2.33;1.40;;;18.40;71.40;;;;;;5077355;28;20495;-82
2021/08/07 06:16:25;;;;;;;3.27;2.00;;;18.90;68.60;;;;;;5077449;28;20410;-82
2021/08/07 06:18:53;;;;;;;3.97;1.37;;;19.50;66.50;;;;;;5078998;28;20545;-82
2021/08/07 06:21:21;;;;;;;2.10;1.40;;;20.10;60.90;;;;;;5078484;28;20462;-84
2021/08/07 06:23:48;;;;;;;1.83;1.63;;;20.40;59.00;;;;;;5078436;28;20531;-81
2021/08/07 06:26:15;;;;;;;5.13;1.30;;;20.60;58.40;;;;;;5078827;28;20453;-81
2021/08/07 06:28:42;;;;;;;6.13;2.07;;;20.60;57.30;;;;;;5079888;28;21006;-81
2021/08/07 06:31:10;;;;;;;2.63;2.10;;;20.30;58.50;;;;;;5081941;28;20473;-82
2021/08/07 06:33:37;;;;;;;2.57;1.77;;;19.70;60.50;;;;;;5091195;28;20488;-82
2021/08/07 06:36:06;;;;;;;1.73;1.50;;;19.60;62.00;;;;;;5089734;28;20457;-82
2021/08/07 06:38:33;;;;;;;1.77;1.33;;;19.80;60.50;;;;;;5078218;28;20528;-81
2021/08/07 06:41:00;;;;;;;1.97;1.57;;;20.00;60.00;;;;;;5077791;28;20518;-82
2021/08/07 06:43:27;;;;;;;7.47;1.90;;;20.20;59.30;;;;;;5077630;28;20540;-82
2021/08/07 06:45:54;;;;;;;3.37;1.70;;;20.20;59.50;;;;;;5086830;28;20438;-83
2021/08/07 06:48:21;;;;;;;3.27;1.80;;;20.10;60.20;;;;;;5096572;28;20460;-83
2021/08/07 06:50:49;;;;;;;9.70;1.50;;;20.30;60.40;;;;;;5088454;28;20488;-82
2021/08/07 06:53:17;;;;;;;1.00;1.00;;;20.50;59.10;;;;;;5096829;28;20464;-83
2021/08/07 06:55:44;;;;;;;6.17;1.40;;;20.60;58.00;;;;;;5097314;28;20461;-83
2021/08/07 06:58:11;;;;;;;2.10;1.67;;;20.40;59.00;;;;;;5084721;28;21016;-83
2021/08/07 07:00:39;;;;;;;2.83;1.60;;;20.40;59.00;;;;;;5085539;28;20771;-83
2021/08/07 07:03:07;;;;;;;4.20;1.67;;;20.70;56.90;;;;;;5076210;28;20473;-82
2021/08/07 07:05:36;;;;;;;3.70;1.60;;;20.80;55.30;;;;;;5078441;28;20440;-82
2021/08/07 07:08:04;;;;;;;2.60;1.33;;;20.90;55.70;;;;;;5080579;28;20429;-83
2021/08/07 07:10:32;;;;;;;5.77;1.63;;;21.30;53.60;;;;;;5081454;28;20478;-83
2021/08/07 07:12:59;;;;;;;2.87;1.80;;;21.20;53.20;;;;;;5081331;28;20452;-83
2021/08/07 07:15:27;;;;;;;2.80;1.40;;;21.00;54.70;;;;;;5085426;28;20475;-83
2021/08/07 07:17:54;;;;;;;3.43;1.30;;;21.30;54.40;;;;;;5086744;28;20498;-81
2021/08/07 07:20:22;;;;;;;2.53;1.33;;;21.60;52.30;;;;;;5088469;28;20426;-82
2021/08/07 07:22:50;;;;;;;2.50;1.40;;;21.90;50.60;;;;;;5083086;28;20510;-81
2021/08/07 07:25:19;;;;;;;3.87;1.40;;;22.30;51.00;;;;;;5084152;28;20516;-82
2021/08/07 07:27:48;;;;;;;3.07;1.40;;;22.60;46.80;;;;;;5083807;28;20475;-82
2021/08/07 07:30:16;;;;;;;2.83;1.40;;;22.70;45.70;;;;;;5083840;28;20448;-82
2021/08/07 07:32:44;;;;;;;1.53;1.33;;;22.80;46.20;;;;;;5085209;28;20512;-81
2021/08/07 07:35:12;;;;;;;4.30;1.67;;;22.80;46.00;;;;;;5087723;28;20519;-82
2021/08/07 07:37:39;;;;;;;1.83;1.23;;;22.90;45.90;;;;;;5096502;28;20475;-81
2021/08/07 07:40:09;;;;;;;3.03;1.23;;;23.00;44.50;;;;;;5099446;28;20422;-84
2021/08/07 07:42:39;;;;;;;1.83;1.30;;;23.00;45.10;;;;;;5100262;28;20472;-85
2021/08/07 07:45:09;;;;;;;3.83;1.50;;;23.10;44.20;;;;;;5099493;28;20478;-85
2021/08/07 07:47:36;;;;;;;3.90;1.20;;;23.10;43.70;;;;;;5100725;28;20443;-84
2021/08/07 07:50:03;;;;;;;2.53;1.30;;;22.90;43.50;;;;;;5101034;28;20421;-86
2021/08/07 07:52:31;;;;;;;4.20;1.10;;;23.00;43.90;;;;;;5099858;28;20474;-83
2021/08/07 07:55:00;;;;;;;3.00;1.30;;;23.30;43.40;;;;;;5100165;28;20417;-83
2021/08/07 07:57:27;;;;;;;5.40;1.47;;;23.60;42.20;;;;;;5086537;28;20456;-83
2021/08/07 07:59:54;;;;;;;2.97;1.33;;;23.80;42.30;;;;;;5080944;28;20470;-83
2021/08/07 08:02:22;;;;;;;2.03;1.13;;;23.80;42.30;;;;;;5084254;28;20511;-83
2021/08/07 08:04:49;;;;;;;2.27;1.40;;;24.00;42.60;;;;;;5085175;28;20488;-82
2021/08/07 08:07:16;;;;;;;2.33;1.27;;;24.00;42.60;;;;;;5082238;28;20472;-83
2021/08/07 08:09:42;;;;;;;6.50;1.17;;;24.00;42.60;;;;;;5082439;28;20761;-84
2021/08/07 08:12:09;;;;;;;1.53;1.20;;;24.10;42.60;;;;;;5088481;28;20428;-82
2021/08/07 08:14:36;;;;;;;2.00;1.63;;;24.00;42.60;;;;;;5090393;28;20529;-81
2021/08/07 08:17:04;;;;;;;2.07;1.50;;;24.00;42.60;;;;;;5087027;28;20450;-82
2021/08/07 08:19:32;;;;;;;1.53;1.30;;;23.90;42.00;;;;;;5083091;28;20436;-82
2021/08/07 08:21:59;;;;;;;1.73;1.37;;;23.90;42.50;;;;;;5084967;28;20447;-83
2021/08/07 08:24:26;;;;;;;2.00;1.50;;;24.00;42.50;;;;;;5083461;28;20488;-84
2021/08/07 08:26:53;;;;;;;3.10;1.40;;;24.00;42.60;;;;;;5090687;28;20470;-82
2021/08/07 08:29:20;;;;;;;2.70;1.53;;;24.20;41.10;;;;;;5093370;28;20454;-81
2021/08/07 08:31:47;;;;;;;2.20;1.20;;;24.30;40.70;;;;;;5091272;28;20441;-82
2021/08/07 08:34:14;;;;;;;2.47;1.60;;;24.30;39.70;;;;;;5088235;28;20447;-82
2021/08/07 08:36:43;;;;;;;2.40;1.17;;;24.50;39.50;;;;;;5087417;28;20495;-81
2021/08/07 08:39:10;;;;;;;2.87;1.43;;;24.50;38.90;;;;;;5088723;28;20460;-82
2021/08/07 08:41:37;;;;;;;2.17;1.40;;;24.50;39.10;;;;;;5088725;28;20430;-82
2021/08/07 08:44:05;;;;;;;3.10;1.40;;;24.70;38.80;;;;;;5095312;28;20556;-83
2021/08/07 08:46:32;;;;;;;1.47;1.10;;;24.60;38.60;;;;;;5086348;28;20461;-81
2021/08/07 08:49:00;;;;;;;1.77;1.53;;;24.20;38.50;;;;;;5084953;28;20517;-81
2021/08/07 08:51:30;;;;;;;3.40;1.63;;;24.00;39.10;;;;;;5083881;28;20820;-82
2021/08/07 08:53:58;;;;;;;2.67;1.43;;;23.70;40.10;;;;;;5082789;28;20468;-80
2021/08/07 08:56:30;;;;;;;2.50;1.73;;;23.60;40.70;;;;;;5084308;28;20967;-82
2021/08/07 08:58:57;;;;;;;2.37;1.57;;;23.60;40.20;;;;;;5083152;28;20436;-82
2021/08/07 09:01:24;;;;;;;2.20;1.50;;;23.60;41.10;;;;;;5084609;28;20487;-81
2021/08/07 09:03:51;;;;;;;3.23;1.17;;;23.40;42.00;;;;;;5089249;28;20834;-82
2021/08/07 09:06:18;;;;;;;1.50;1.40;;;23.50;42.10;;;;;;5094750;28;20461;-85
2021/08/07 09:09:04;;;;;;;1.10;1.00;;;23.90;40.50;;;;;;5098058;28;20461;-84
2021/08/07 09:11:32;;;;;;;1.40;1.30;;;24.10;40.50;;;;;;5099304;28;20401;-83
2021/08/07 09:14:19;;;;;;;4.53;1.40;;;24.10;40.60;;;;;;5099329;28;20490;-82
2021/08/07 09:17:20;;;;;;;1.33;1.10;;;24.30;40.60;;;;;;5097873;28;20457;-84
2021/08/07 09:19:54;;;;;;;6.87;1.27;;;24.40;39.90;;;;;;5055398;28;20409;-81
2021/08/07 09:22:24;;;;;;;3.07;1.50;;;24.20;40.70;;;;;;5054576;28;20448;-82
2021/08/07 09:24:59;;;;;;;2.90;1.33;;;24.20;40.90;;;;;;5054922;28;20447;-83
2021/08/07 09:27:30;;;;;;;3.27;2.00;;;24.20;41.00;;;;;;5048043;28;20439;-81
2021/08/07 09:30:01;;;;;;;2.23;1.30;;;24.30;41.10;;;;;;5049259;28;20409;-83
2021/08/07 09:32:47;;;;;;;3.17;1.70;;;24.30;41.50;;;;;;5049827;28;20987;-82
2021/08/07 09:35:16;;;;;;;3.10;1.80;;;24.50;41.20;;;;;;5047806;28;20533;-82
2021/08/07 09:38:05;;;;;;;1.80;1.60;;;24.80;40.50;;;;;;5052785;28;20434;-81
2021/08/07 09:40:45;;;;;;;2.63;1.77;;;25.00;40.50;;;;;;5361360;22;20812;-83
2021/08/07 09:43:13;;;;;;;2.53;1.57;;;25.10;40.50;;;;;;5062440;28;20472;-83
2021/08/07 09:45:41;;;;;;;3.17;1.53;;;25.10;40.60;;;;;;5068382;28;20554;-83
2021/08/07 09:48:10;;;;;;;2.70;1.30;;;25.10;40.40;;;;;;5074018;28;20443;-83
2021/08/07 09:50:41;;;;;;;3.83;1.30;;;25.00;40.90;;;;;;5074874;28;20431;-82
2021/08/07 09:53:20;;;;;;;2.53;1.90;;;24.70;42.10;;;;;;5077680;28;20466;-82
2021/08/07 09:56:05;;;;;;;1.57;1.47;;;24.70;42.30;;;;;;5077471;28;20673;-82
2021/08/07 09:58:32;;;;;;;3.17;1.70;;;24.80;42.00;;;;;;5077600;28;20439;-82
2021/08/07 10:00:59;;;;;;;2.60;1.83;;;24.90;41.70;;;;;;5076266;28;20451;-84
2021/08/07 10:03:29;;;;;;;3.20;1.93;;;24.80;41.60;;;;;;5072878;28;20466;-83
2021/08/07 10:05:57;;;;;;;3.43;1.80;;;24.70;42.20;;;;;;5070237;28;20484;-82
2021/08/07 10:08:24;;;;;;;5.33;1.90;;;24.50;43.80;;;;;;5076007;28;20415;-83
2021/08/07 10:11:09;;;;;;;3.10;1.73;;;24.20;42.70;;;;;;5076054;28;20458;-83
2021/08/07 10:13:37;;;;;;;1.73;1.33;;;23.90;43.50;;;;;;5075193;28;20464;-83
2021/08/07 10:16:05;;;;;;;1.93;1.50;;;24.00;43.50;;;;;;5067253;28;20449;-83
2021/08/07 10:18:33;;;;;;;1.97;1.50;;;24.30;42.80;;;;;;5061959;28;20469;-82
2021/08/07 10:21:04;;;;;;;1.90;1.37;;;24.50;43.10;;;;;;5063342;28;20850;-83
2021/08/07 10:23:33;;;;;;;3.67;1.73;;;24.60;43.10;;;;;;5065963;28;20476;-83
2021/08/07 10:26:02;;;;;;;3.77;1.77;;;24.60;43.10;;;;;;5066046;28;20490;-82
2021/08/07 10:28:31;;;;;;;3.70;1.87;;;24.70;43.20;;;;;;5071200;28;20454;-81
2021/08/07 10:31:02;;;;;;;5.10;1.40;;;24.70;43.00;;;;;;5076474;28;20419;-80
2021/08/07 10:33:41;;;;;;;1.50;1.40;;;24.50;43.00;;;;;;5075833;28;20434;-82
2021/08/07 10:36:08;;;;;;;1.90;1.67;;;24.50;43.00;;;;;;5076865;28;20410;-81
2021/08/07 10:38:37;;;;;;;2.30;1.80;;;24.40;42.90;;;;;;5074293;28;20447;-81
2021/08/07 10:41:04;;;;;;;6.70;1.83;;;24.30;42.80;;;;;;5065917;28;20492;-83
2021/08/07 10:43:35;;;;;;;3.70;1.60;;;24.30;42.80;;;;;;5064784;28;20503;-82
2021/08/07 10:46:04;;;;;;;4.50;1.80;;;24.10;42.60;;;;;;5069393;28;20560;-83
2021/08/07 10:48:35;;;;;;;1.67;1.57;;;24.10;42.60;;;;;;5073703;28;20906;-81
2021/08/07 10:51:30;;;;;;;1.53;1.43;;;24.00;42.60;;;;;;5075583;28;20435;-81
2021/08/07 10:53:58;;;;;;;2.93;1.57;;;24.00;42.60;;;;;;5074597;28;20456;-82
2021/08/07 10:56:39;;;;;;;1.73;1.37;;;24.00;42.60;;;;;;5074544;28;20461;-83
2021/08/07 10:59:25;;;;;;;2.73;1.47;;;24.00;42.60;;;;;;5075401;28;20424;-81
2021/08/07 11:01:55;;;;;;;2.93;1.63;;;23.80;43.00;;;;;;5075414;28;20938;-84
2021/08/07 11:04:28;;;;;;;3.43;1.50;;;23.70;43.60;;;;;;5074404;28;20472;-84
2021/08/07 11:07:01;;;;;;;2.53;1.40;;;23.70;44.10;;;;;;5068240;28;20907;-82
2021/08/07 11:09:31;;;;;;;5.63;1.90;;;23.90;43.80;;;;;;5065637;28;20804;-83
2021/08/07 11:12:29;;;;;;;3.23;1.87;;;23.80;43.60;;;;;;5067250;28;20464;-82
2021/08/07 11:15:30;;;;;;;9.40;2.03;;;23.60;45.00;;;;;;5064778;28;20784;-82
2021/08/07 11:18:18;;;;;;;2.00;1.30;;;23.50;45.20;;;;;;5057490;28;20455;-82
2021/08/07 11:20:48;;;;;;;4.97;1.70;;;23.40;45.70;;;;;;5064762;28;20498;-83
2021/08/07 11:23:18;;;;;;;2.60;1.73;;;23.20;46.20;;;;;;5065407;28;20481;-83
2021/08/07 11:26:06;;;;;;;7.90;2.17;;;23.10;47.20;;;;;;5064045;28;20521;-82
2021/08/07 11:29:04;;;;;;;1.73;1.60;;;23.10;48.10;;;;;;5065472;28;20421;-82
2021/08/07 11:31:31;;;;;;;5.23;2.33;;;22.90;49.20;;;;;;5064597;28;20431;-82
2021/08/07 11:34:22;;;;;;;2.60;2.20;;;22.80;51.50;;;;;;5070111;28;20451;-82
2021/08/07 11:37:24;;;;;;;2.97;1.80;;;22.70;51.40;;;;;;5069660;28;20864;-82
2021/08/07 11:40:20;;;;;;;6.23;2.20;;;22.80;53.00;;;;;;5031236;28;20552;-83
2021/08/07 11:42:50;;;;;;;1.70;1.60;;;22.50;55.00;;;;;;5068524;28;20479;-82
2021/08/07 11:45:20;;;;;;;2.63;1.80;;;22.40;55.80;;;;;;5075579;28;20480;-81
2021/08/07 11:47:49;;;;;;;4.27;1.80;;;22.40;59.00;;;;;;5076025;28;20432;-81
2021/08/07 11:50:19;;;;;;;4.73;2.10;;;22.30;61.60;;;;;;5071482;28;20422;-82
2021/08/07 11:52:46;;;;;;;6.90;2.20;;;22.00;62.80;;;;;;5058668;28;20509;-82
2021/08/07 11:55:13;;;;;;;5.03;2.10;;;21.80;64.90;;;;;;5060693;28;20476;-81
2021/08/07 11:57:40;;;;;;;4.83;2.40;;;21.50;69.20;;;;;;5061350;28;20441;-82
2021/08/07 12:00:28;;;;;;;3.30;2.27;;;21.30;72.50;;;;;;5063844;28;20526;-82
2021/08/07 12:03:04;;;;;;;4.00;2.43;;;21.00;74.20;;;;;;5068429;28;20481;-83
2021/08/07 12:05:33;;;;;;;4.47;2.53;;;20.90;76.50;;;;;;5065649;28;20530;-82
2021/08/07 12:08:05;;;;;;;5.60;2.30;;;20.70;78.80;;;;;;5062491;28;20465;-82
2021/08/07 12:10:33;;;;;;;2.97;2.07;;;20.40;83.00;;;;;;5062636;28;20455;-81
2021/08/07 12:13:00;;;;;;;4.80;2.53;;;20.00;87.20;;;;;;5067720;28;20484;-81
2021/08/07 12:15:28;;;;;;;3.07;2.53;;;19.60;88.10;;;;;;5076744;28;20435;-81
2021/08/07 12:17:59;;;;;;;2.07;1.87;;;19.40;90.40;;;;;;5080209;28;20444;-81
2021/08/07 12:20:27;;;;;;;2.70;2.50;;;19.40;91.40;;;;;;5077943;28;20455;-82
2021/08/07 12:23:01;;;;;;;8.00;2.40;;;19.30;91.40;;;;;;5077551;28;20494;-81
2021/08/07 12:25:29;;;;;;;3.47;2.37;;;19.40;90.60;;;;;;5073596;28;20515;-80
2021/08/07 12:28:11;;;;;;;3.90;2.83;;;19.30;90.10;;;;;;5073010;28;20459;-81
2021/08/07 12:30:55;;;;;;;2.63;2.33;;;19.30;89.00;;;;;;5073161;28;20457;-80
2021/08/07 12:33:24;;;;;;;4.00;2.60;;;19.20;90.70;;;;;;5064123;28;20483;-81
2021/08/07 12:35:52;;;;;;;10.70;2.20;;;19.20;91.70;;;;;;5063397;28;20532;-80
2021/08/07 12:38:23;;;;;;;4.33;2.53;;;19.20;92.10;;;;;;5069458;28;20468;-81
2021/08/07 12:40:52;;;;;;;4.33;2.37;;;19.20;92.00;;;;;;5064397;28;20540;-80
2021/08/07 12:43:19;;;;;;;3.03;2.17;;;19.20;91.40;;;;;;5059205;28;20500;-81
2021/08/07 12:45:57;;;;;;;3.70;2.30;;;19.10;91.30;;;;;;5070103;28;20485;-81
2021/08/07 12:48:24;;;;;;;2.50;2.30;;;19.10;92.20;;;;;;5068901;28;20495;-81
2021/08/07 12:51:02;;;;;;;2.90;2.43;;;19.10;93.00;;;;;;5068097;28;20441;-80
2021/08/07 12:53:45;;;;;;;2.67;2.30;;;19.10;93.60;;;;;;5077139;28;20476;-81
2021/08/07 12:56:13;;;;;;;5.10;2.13;;;19.10;94.60;;;;;;5067651;28;20458;-81
2021/08/07 12:59:06;;;;;;;3.70;2.60;;;19.30;94.00;;;;;;5062280;28;20923;-80
2021/08/07 13:01:37;;;;;;;3.67;2.33;;;19.30;92.80;;;;;;5062615;28;20495;-82